sensor_id;sensor_type;location;lat;lon;timestamp;pressure;altitude;pressure_sealevel;temperature;humidity
54465;BME280;40374;49.480;20.016;2023-04-29T00:02:04;94781.81;;;8.21;100.00
54465;BME280;40374;49.480;20.016;2023-04-29T00:04:32;94782.09;;;8.20;100.00
54465;BME280;40374;49.480;20.016;2023-04-29T00:07:00;94784.22;;;8.33;100.00
54465;BME280;40374;49.480;20.016;2023-04-29T00:09:28;94781.78;;;8.31;100.00
54465;BME280;40374;49.480;20.016;2023-04-29T00:11:55;94773.75;;;8.31;100.00
54465;BME280;40374;49.480;20.016;2023-04-29T00:14:22;94779.13;;;8.26;100.00
54465;BME280;40374;49.480;20.016;2023-04-29T00:16:50;94783.69;;;8.26;100.00
54465;BME280;40374;49.480;20.016;2023-04-29T00:19:18;94783.69;;;8.21;100.00
54465;BME280;40374;49.480;20.016;2023-04-29T00:21:46;94785.31;;;8.22;100.00
54465;BME280;40374;49.480;20.016;2023-04-29T00:24:14;94784.22;;;8.18;100.00
54465;BME280;40374;49.480;20.016;2023-04-29T00:26:41;94785.56;;;8.20;100.00
54465;BME280;40374;49.480;20.016;2023-04-29T00:29:09;94790.66;;;8.22;100.00
54465;BME280;40374;49.480;20.016;2023-04-29T00:31:36;94787.72;;;8.23;100.00
54465;BME280;40374;49.480;20.016;2023-04-29T00:34:04;94769.78;;;8.13;100.00
54465;BME280;40374;49.480;20.016;2023-04-29T00:36:31;94783.16;;;8.24;100.00
54465;BME280;40374;49.480;20.016;2023-04-29T00:38:59;94771.34;;;8.14;100.00
54465;BME280;40374;49.480;20.016;2023-04-29T00:41:27;94777.25;;;8.17;100.00
54465;BME280;40374;49.480;20.016;2023-04-29T00:43:58;94778.06;;;8.27;100.00
54465;BME280;40374;49.480;20.016;2023-04-29T00:46:26;94782.06;;;8.35;100.00
54465;BME280;40374;49.480;20.016;2023-04-29T00:48:54;94770.81;;;8.33;100.00
54465;BME280;40374;49.480;20.016;2023-04-29T00:51:22;94772.97;;;8.36;100.00
54465;BME280;40374;49.480;20.016;2023-04-29T00:53:51;94770.56;;;8.29;100.00
54465;BME280;40374;49.480;20.016;2023-04-29T00:56:19;94764.09;;;8.36;100.00
54465;BME280;40374;49.480;20.016;2023-04-29T00:58:51;94766.78;;;8.36;100.00
54465;BME280;40374;49.480;20.016;2023-04-29T01:01:18;94771.34;;;8.40;100.00
54465;BME280;40374;49.480;20.016;2023-04-29T01:03:46;94775.41;;;8.27;100.00
54465;BME280;40374;49.480;20.016;2023-04-29T01:09:11;94773.50;;;8.28;100.00
54465;BME280;40374;49.480;20.016;2023-04-29T01:14:33;94777.81;;;8.13;100.00
54465;BME280;40374;49.480;20.016;2023-04-29T01:17:09;94772.97;;;8.05;100.00
54465;BME280;40374;49.480;20.016;2023-04-29T01:19:41;94780.47;;;8.03;100.00
54465;BME280;40374;49.480;20.016;2023-04-29T01:22:11;94778.84;;;7.87;100.00
54465;BME280;40374;49.480;20.016;2023-04-29T01:24:40;94777.78;;;7.93;100.00
54465;BME280;40374;49.480;20.016;2023-04-29T01:27:36;94777.81;;;7.98;100.00
54465;BME280;40374;49.480;20.016;2023-04-29T01:33:05;94767.63;;;7.95;100.00
54465;BME280;40374;49.480;20.016;2023-04-29T01:41:01;94772.47;;;8.08;100.00
54465;BME280;40374;49.480;20.016;2023-04-29T01:43:36;94766.81;;;8.15;100.00
54465;BME280;40374;49.480;20.016;2023-04-29T01:46:19;94772.44;;;8.19;100.00
54465;BME280;40374;49.480;20.016;2023-04-29T01:48:47;94763.31;;;8.14;100.00
54465;BME280;40374;49.480;20.016;2023-04-29T01:51:15;94765.22;;;8.19;100.00
54465;BME280;40374;49.480;20.016;2023-04-29T01:53:42;94768.13;;;8.23;100.00
54465;BME280;40374;49.480;20.016;2023-04-29T01:56:10;94761.47;;;8.25;100.00
54465;BME280;40374;49.480;20.016;2023-04-29T01:58:56;94756.63;;;8.22;100.00
54465;BME280;40374;49.480;20.016;2023-04-29T02:01:39;94760.66;;;8.20;100.00
54465;BME280;40374;49.480;20.016;2023-04-29T02:04:07;94754.75;;;8.07;100.00
54465;BME280;40374;49.480;20.016;2023-04-29T02:06:37;94759.06;;;8.03;100.00
54465;BME280;40374;49.480;20.016;2023-04-29T02:09:04;94740.31;;;7.93;100.00
54465;BME280;40374;49.480;20.016;2023-04-29T02:11:33;94759.59;;;8.00;100.00
54465;BME280;40374;49.480;20.016;2023-04-29T02:14:01;94757.47;;;8.02;100.00
54465;BME280;40374;49.480;20.016;2023-04-29T02:16:28;94763.31;;;8.14;100.00
54465;BME280;40374;49.480;20.016;2023-04-29T02:18:59;94762.25;;;8.21;100.00
54465;BME280;40374;49.480;20.016;2023-04-29T02:21:27;94750.75;;;8.25;100.00
54465;BME280;40374;49.480;20.016;2023-04-29T02:23:54;94750.47;;;8.32;100.00
54465;BME280;40374;49.480;20.016;2023-04-29T02:26:24;94753.41;;;8.30;100.00
54465;BME280;40374;49.480;20.016;2023-04-29T02:28:54;94756.91;;;8.26;100.00
54465;BME280;40374;49.480;20.016;2023-04-29T02:31:23;94748.88;;;8.26;100.00
54465;BME280;40374;49.480;20.016;2023-04-29T02:33:52;94740.56;;;8.22;100.00
54465;BME280;40374;49.480;20.016;2023-04-29T02:36:20;94751.25;;;8.32;100.00
54465;BME280;40374;49.480;20.016;2023-04-29T02:38:51;94733.84;;;8.14;100.00
54465;BME280;40374;49.480;20.016;2023-04-29T02:41:20;94746.72;;;8.18;100.00
54465;BME280;40374;49.480;20.016;2023-04-29T02:43:47;94747.00;;;8.06;100.00
54465;BME280;40374;49.480;20.016;2023-04-29T02:46:18;94748.88;;;7.90;100.00
54465;BME280;40374;49.480;20.016;2023-04-29T02:48:45;94749.94;;;7.79;100.00
54465;BME280;40374;49.480;20.016;2023-04-29T02:51:14;94733.88;;;7.63;100.00
54465;BME280;40374;49.480;20.016;2023-04-29T02:53:42;94739.22;;;7.68;100.00
54465;BME280;40374;49.480;20.016;2023-04-29T02:56:10;94725.84;;;7.68;100.00
54465;BME280;40374;49.480;20.016;2023-04-29T02:58:37;94739.25;;;7.73;100.00
54465;BME280;40374;49.480;20.016;2023-04-29T03:01:05;94744.31;;;7.80;100.00
54465;BME280;40374;49.480;20.016;2023-04-29T03:03:33;94743.81;;;7.83;100.00
54465;BME280;40374;49.480;20.016;2023-04-29T03:06:02;94748.63;;;7.81;100.00
54465;BME280;40374;49.480;20.016;2023-04-29T03:08:29;94742.19;;;7.82;100.00
54465;BME280;40374;49.480;20.016;2023-04-29T03:10:57;94744.34;;;7.85;100.00
54465;BME280;40374;49.480;20.016;2023-04-29T03:13:24;94731.19;;;7.89;100.00
54465;BME280;40374;49.480;20.016;2023-04-29T03:15:52;94737.09;;;7.96;100.00
54465;BME280;40374;49.480;20.016;2023-04-29T03:18:19;94743.78;;;7.93;100.00
54465;BME280;40374;49.480;20.016;2023-04-29T03:20:47;94740.31;;;7.98;100.00
54465;BME280;40374;49.480;20.016;2023-04-29T03:23:14;94742.19;;;7.92;100.00
54465;BME280;40374;49.480;20.016;2023-04-29T03:25:42;94748.88;;;7.95;100.00
54465;BME280;40374;49.480;20.016;2023-04-29T03:28:10;94734.69;;;8.05;100.00
54465;BME280;40374;49.480;20.016;2023-04-29T03:30:38;94744.06;;;8.07;100.00
54465;BME280;40374;49.480;20.016;2023-04-29T03:33:05;94740.31;;;8.08;100.00
54465;BME280;40374;49.480;20.016;2023-04-29T03:35:33;94745.66;;;8.24;100.00
54465;BME280;40374;49.480;20.016;2023-04-29T03:38:20;94751.53;;;8.26;100.00
54465;BME280;40374;49.480;20.016;2023-04-29T03:40:48;94749.91;;;8.25;100.00
54465;BME280;40374;49.480;20.016;2023-04-29T03:43:17;94749.41;;;8.07;100.00
54465;BME280;40374;49.480;20.016;2023-04-29T03:45:44;94744.59;;;8.04;100.00
54465;BME280;40374;49.480;20.016;2023-04-29T03:48:15;94740.31;;;8.03;100.00
54465;BME280;40374;49.480;20.016;2023-04-29T03:50:43;94746.72;;;8.12;100.00
54465;BME280;40374;49.480;20.016;2023-04-29T03:53:11;94760.13;;;8.18;100.00
54465;BME280;40374;49.480;20.016;2023-04-29T03:55:39;94755.81;;;8.17;100.00
54465;BME280;40374;49.480;20.016;2023-04-29T03:58:08;94747.78;;;8.17;100.00
54465;BME280;40374;49.480;20.016;2023-04-29T04:00:36;94760.63;;;8.25;100.00
54465;BME280;40374;49.480;20.016;2023-04-29T04:03:07;94755.03;;;8.21;100.00
54465;BME280;40374;49.480;20.016;2023-04-29T04:05:38;94751.81;;;8.19;100.00
54465;BME280;40374;49.480;20.016;2023-04-29T04:08:11;94756.13;;;8.15;100.00
54465;BME280;40374;49.480;20.016;2023-04-29T04:10:49;94756.38;;;8.24;100.00
54465;BME280;40374;49.480;20.016;2023-04-29T04:13:31;94748.59;;;8.32;100.00
54465;BME280;40374;49.480;20.016;2023-04-29T04:16:04;94749.66;;;8.42;100.00
54465;BME280;40374;49.480;20.016;2023-04-29T04:18:31;94744.56;;;8.40;100.00
54465;BME280;40374;49.480;20.016;2023-04-29T04:21:04;94758.50;;;8.47;100.00
54465;BME280;40374;49.480;20.016;2023-04-29T04:23:32;94764.63;;;8.38;100.00
54465;BME280;40374;49.480;20.016;2023-04-29T04:26:00;94756.88;;;8.31;100.00
54465;BME280;40374;49.480;20.016;2023-04-29T04:28:47;94756.34;;;8.34;100.00
54465;BME280;40374;49.480;20.016;2023-04-29T04:31:21;94756.88;;;8.36;100.00
54465;BME280;40374;49.480;20.016;2023-04-29T04:33:49;94752.59;;;8.35;100.00
54465;BME280;40374;49.480;20.016;2023-04-29T04:36:17;94747.25;;;8.40;100.00
54465;BME280;40374;49.480;20.016;2023-04-29T04:38:46;94734.38;;;8.32;100.00
54465;BME280;40374;49.480;20.016;2023-04-29T04:41:14;94732.75;;;8.62;100.00
54465;BME280;40374;49.480;20.016;2023-04-29T04:43:46;94735.94;;;8.64;100.00
54465;BME280;40374;49.480;20.016;2023-04-29T04:46:21;94728.16;;;8.62;100.00
54465;BME280;40374;49.480;20.016;2023-04-29T04:49:11;94719.34;;;8.62;100.00
54465;BME280;40374;49.480;20.016;2023-04-29T04:51:45;94727.63;;;8.65;100.00
54465;BME280;40374;49.480;20.016;2023-04-29T04:54:13;94730.78;;;8.78;100.00
54465;BME280;40374;49.480;20.016;2023-04-29T04:56:41;94724.63;;;8.82;100.00
54465;BME280;40374;49.480;20.016;2023-04-29T04:59:08;94721.38;;;8.85;100.00
54465;BME280;40374;49.480;20.016;2023-04-29T05:01:38;94721.34;;;8.96;100.00
54465;BME280;40374;49.480;20.016;2023-04-29T05:04:05;94729.38;;;8.96;100.00
54465;BME280;40374;49.480;20.016;2023-04-29T05:06:33;94726.72;;;8.96;100.00
54465;BME280;40374;49.480;20.016;2023-04-29T05:09:01;94729.44;;;8.90;100.00
54465;BME280;40374;49.480;20.016;2023-04-29T05:11:28;94721.66;;;8.84;100.00
54465;BME280;40374;49.480;20.016;2023-04-29T05:14:11;94733.13;;;9.00;100.00
54465;BME280;40374;49.480;20.016;2023-04-29T05:16:38;94735.59;;;8.91;100.00
54465;BME280;40374;49.480;20.016;2023-04-29T05:19:06;94737.22;;;8.82;100.00
54465;BME280;40374;49.480;20.016;2023-04-29T05:21:38;94736.44;;;8.71;100.00
54465;BME280;40374;49.480;20.016;2023-04-29T05:24:08;94723.09;;;8.56;100.00
54465;BME280;40374;49.480;20.016;2023-04-29T05:26:35;94736.47;;;8.61;100.00
54465;BME280;40374;49.480;20.016;2023-04-29T05:29:05;94731.66;;;8.58;100.00
54465;BME280;40374;49.480;20.016;2023-04-29T05:31:42;94736.53;;;8.50;100.00
54465;BME280;40374;49.480;20.016;2023-04-29T05:34:09;94730.91;;;8.47;100.00
54465;BME280;40374;49.480;20.016;2023-04-29T05:36:37;94741.06;;;8.40;100.00
54465;BME280;40374;49.480;20.016;2023-04-29T05:39:04;94733.31;;;8.33;100.00
54465;BME280;40374;49.480;20.016;2023-04-29T05:41:32;94744.56;;;8.35;100.00
54465;BME280;40374;49.480;20.016;2023-04-29T05:44:19;94735.72;;;8.24;100.00
54465;BME280;40374;49.480;20.016;2023-04-29T05:46:47;94738.13;;;8.31;100.00
54465;BME280;40374;49.480;20.016;2023-04-29T05:49:15;94756.09;;;8.46;100.00
54465;BME280;40374;49.480;20.016;2023-04-29T05:51:43;94751.50;;;8.57;100.00
54465;BME280;40374;49.480;20.016;2023-04-29T05:54:10;94750.72;;;8.61;100.00
54465;BME280;40374;49.480;20.016;2023-04-29T05:56:41;94745.59;;;8.70;100.00
54465;BME280;40374;49.480;20.016;2023-04-29T05:59:08;94747.16;;;8.81;100.00
54465;BME280;40374;49.480;20.016;2023-04-29T06:01:36;94742.31;;;8.88;100.00
54465;BME280;40374;49.480;20.016;2023-04-29T06:04:05;94747.91;;;8.92;100.00
54465;BME280;40374;49.480;20.016;2023-04-29T06:06:54;94741.75;;;8.97;100.00
54465;BME280;40374;49.480;20.016;2023-04-29T06:09:43;94744.88;;;9.14;100.00
54465;BME280;40374;49.480;20.016;2023-04-29T06:12:10;94743.47;;;9.27;100.00
54465;BME280;40374;49.480;20.016;2023-04-29T06:14:40;94749.53;;;9.48;100.00
54465;BME280;40374;49.480;20.016;2023-04-29T06:17:08;94737.63;;;9.64;100.00
54465;BME280;40374;49.480;20.016;2023-04-29T06:19:35;94730.00;;;9.77;100.00
54465;BME280;40374;49.480;20.016;2023-04-29T06:22:03;94739.53;;;9.93;100.00
54465;BME280;40374;49.480;20.016;2023-04-29T06:24:31;94741.50;;;10.16;100.00
54465;BME280;40374;49.480;20.016;2023-04-29T06:26:59;94738.22;;;10.25;100.00
54465;BME280;40374;49.480;20.016;2023-04-29T06:29:26;94741.38;;;10.32;100.00
54465;BME280;40374;49.480;20.016;2023-04-29T06:31:55;94731.69;;;10.36;100.00
54465;BME280;40374;49.480;20.016;2023-04-29T06:34:22;94741.75;;;10.49;100.00
54465;BME280;40374;49.480;20.016;2023-04-29T06:37:28;94735.47;;;10.59;100.00
54465;BME280;40374;49.480;20.016;2023-04-29T06:40:11;94737.19;;;10.74;100.00
54465;BME280;40374;49.480;20.016;2023-04-29T06:43:11;94730.31;;;10.87;100.00
54465;BME280;40374;49.480;20.016;2023-04-29T06:46:00;94736.03;;;11.04;100.00
54465;BME280;40374;49.480;20.016;2023-04-29T06:48:34;94740.13;;;11.21;100.00
54465;BME280;40374;49.480;20.016;2023-04-29T06:51:04;94737.16;;;11.22;100.00
54465;BME280;40374;49.480;20.016;2023-04-29T06:53:35;94748.84;;;11.12;100.00
54465;BME280;40374;49.480;20.016;2023-04-29T06:56:03;94742.25;;;11.05;100.00
54465;BME280;40374;49.480;20.016;2023-04-29T06:58:31;94738.28;;;10.97;100.00
54465;BME280;40374;49.480;20.016;2023-04-29T07:00:59;94741.78;;;10.97;100.00
54465;BME280;40374;49.480;20.016;2023-04-29T07:03:27;94737.38;;;10.83;100.00
54465;BME280;40374;49.480;20.016;2023-04-29T07:05:56;94733.13;;;10.76;100.00
54465;BME280;40374;49.480;20.016;2023-04-29T07:08:24;94740.78;;;10.64;100.00
54465;BME280;40374;49.480;20.016;2023-04-29T07:10:53;94741.13;;;10.57;100.00
54465;BME280;40374;49.480;20.016;2023-04-29T07:13:23;94738.69;;;10.61;100.00
54465;BME280;40374;49.480;20.016;2023-04-29T07:15:51;94742.69;;;10.64;100.00
54465;BME280;40374;49.480;20.016;2023-04-29T07:18:19;94739.13;;;10.68;100.00
54465;BME280;40374;49.480;20.016;2023-04-29T07:20:46;94745.78;;;10.76;100.00
54465;BME280;40374;49.480;20.016;2023-04-29T07:23:16;94729.31;;;10.59;100.00
54465;BME280;40374;49.480;20.016;2023-04-29T07:25:44;94733.28;;;10.85;100.00
54465;BME280;40374;49.480;20.016;2023-04-29T07:28:12;94731.59;;;10.94;100.00
54465;BME280;40374;49.480;20.016;2023-04-29T07:30:39;94733.00;;;11.11;100.00
54465;BME280;40374;49.480;20.016;2023-04-29T07:33:08;94706.44;;;11.23;100.00
54465;BME280;40374;49.480;20.016;2023-04-29T07:35:36;94730.22;;;11.59;100.00
54465;BME280;40374;49.480;20.016;2023-04-29T07:38:03;94721.81;;;11.79;100.00
54465;BME280;40374;49.480;20.016;2023-04-29T07:40:31;94727.09;;;12.23;100.00
54465;BME280;40374;49.480;20.016;2023-04-29T07:42:58;94722.97;;;12.72;100.00
54465;BME280;40374;49.480;20.016;2023-04-29T07:45:30;94726.47;;;13.14;100.00
54465;BME280;40374;49.480;20.016;2023-04-29T07:47:58;94721.97;;;13.37;100.00
54465;BME280;40374;49.480;20.016;2023-04-29T07:50:25;94731.47;;;13.85;100.00
54465;BME280;40374;49.480;20.016;2023-04-29T07:52:54;94733.31;;;14.20;100.00
54465;BME280;40374;49.480;20.016;2023-04-29T07:55:23;94735.75;;;14.08;90.05
54465;BME280;40374;49.480;20.016;2023-04-29T07:57:54;94732.69;;;14.24;96.62
54465;BME280;40374;49.480;20.016;2023-04-29T08:00:24;94736.25;;;14.33;86.34
54465;BME280;40374;49.480;20.016;2023-04-29T08:02:52;94727.34;;;13.87;93.37
54465;BME280;40374;49.480;20.016;2023-04-29T08:05:22;94727.06;;;14.11;100.00
54465;BME280;40374;49.480;20.016;2023-04-29T08:07:51;94724.50;;;14.60;100.00
54465;BME280;40374;49.480;20.016;2023-04-29T08:10:18;94719.81;;;15.23;100.00
54465;BME280;40374;49.480;20.016;2023-04-29T08:12:49;94728.28;;;15.39;75.77
54465;BME280;40374;49.480;20.016;2023-04-29T08:15:16;94723.31;;;15.23;72.58
54465;BME280;40374;49.480;20.016;2023-04-29T08:17:46;94717.06;;;15.14;75.08
54465;BME280;40374;49.480;20.016;2023-04-29T08:20:14;94726.19;;;15.27;70.58
54465;BME280;40374;49.480;20.016;2023-04-29T08:22:41;94731.25;;;15.20;69.45
54465;BME280;40374;49.480;20.016;2023-04-29T08:25:09;94718.59;;;14.98;69.76
54465;BME280;40374;49.480;20.016;2023-04-29T08:27:36;94731.91;;;14.77;65.64
54465;BME280;40374;49.480;20.016;2023-04-29T08:30:04;94736.75;;;14.57;70.71
54465;BME280;40374;49.480;20.016;2023-04-29T08:32:32;94725.94;;;14.97;75.15
54465;BME280;40374;49.480;20.016;2023-04-29T08:35:01;94715.66;;;15.34;67.71
54465;BME280;40374;49.480;20.016;2023-04-29T08:37:29;94732.47;;;15.71;67.05
54465;BME280;40374;49.480;20.016;2023-04-29T08:39:56;94719.56;;;15.77;63.66
54465;BME280;40374;49.480;20.016;2023-04-29T08:42:35;94725.81;;;15.95;62.76
54465;BME280;40374;49.480;20.016;2023-04-29T08:45:03;94726.94;;;15.94;59.28
54465;BME280;40374;49.480;20.016;2023-04-29T08:47:32;94726.44;;;15.83;59.73
54465;BME280;40374;49.480;20.016;2023-04-29T08:50:04;94713.50;;;16.32;63.55
54465;BME280;40374;49.480;20.016;2023-04-29T08:52:32;94719.69;;;17.06;61.36
54465;BME280;40374;49.480;20.016;2023-04-29T08:55:00;94701.66;;;17.31;61.02
54465;BME280;40374;49.480;20.016;2023-04-29T08:57:35;94711.44;;;17.74;59.25
54465;BME280;40374;49.480;20.016;2023-04-29T09:00:09;94718.53;;;17.45;58.02
54465;BME280;40374;49.480;20.016;2023-04-29T09:02:42;94708.19;;;17.60;59.82
54465;BME280;40374;49.480;20.016;2023-04-29T09:05:11;94715.41;;;17.85;59.30
54465;BME280;40374;49.480;20.016;2023-04-29T09:07:40;94711.66;;;18.11;56.36
54465;BME280;40374;49.480;20.016;2023-04-29T09:10:10;94701.19;;;18.34;58.42
54465;BME280;40374;49.480;20.016;2023-04-29T09:12:38;94702.28;;;18.54;56.15
54465;BME280;40374;49.480;20.016;2023-04-29T09:15:06;94698.97;;;18.49;56.11
54465;BME280;40374;49.480;20.016;2023-04-29T09:17:41;94696.84;;;18.66;57.56
54465;BME280;40374;49.480;20.016;2023-04-29T09:22:51;94691.41;;;18.66;57.28
54465;BME280;40374;49.480;20.016;2023-04-29T09:25:19;94704.50;;;18.73;57.50
54465;BME280;40374;49.480;20.016;2023-04-29T09:27:48;94696.19;;;18.70;56.64
54465;BME280;40374;49.480;20.016;2023-04-29T09:30:15;94693.66;;;18.64;56.43
54465;BME280;40374;49.480;20.016;2023-04-29T09:32:43;94691.41;;;18.54;56.40
54465;BME280;40374;49.480;20.016;2023-04-29T09:35:29;94689.56;;;18.46;55.65
54465;BME280;40374;49.480;20.016;2023-04-29T09:38:12;94690.94;;;18.19;57.04
54465;BME280;40374;49.480;20.016;2023-04-29T09:40:41;94692.84;;;18.18;57.30
54465;BME280;40374;49.480;20.016;2023-04-29T09:43:25;94706.28;;;18.23;55.14
54465;BME280;40374;49.480;20.016;2023-04-29T09:45:53;94693.47;;;18.03;53.66
54465;BME280;40374;49.480;20.016;2023-04-29T09:48:20;94689.88;;;17.48;53.84
54465;BME280;40374;49.480;20.016;2023-04-29T09:50:59;94695.03;;;17.41;55.95
54465;BME280;40374;49.480;20.016;2023-04-29T09:53:29;94694.16;;;18.00;54.77
54465;BME280;40374;49.480;20.016;2023-04-29T09:56:00;94689.84;;;17.99;55.90
54465;BME280;40374;49.480;20.016;2023-04-29T09:58:30;94674.38;;;18.57;53.77
54465;BME280;40374;49.480;20.016;2023-04-29T10:01:04;94675.34;;;19.11;55.90
54465;BME280;40374;49.480;20.016;2023-04-29T10:03:37;94681.63;;;18.20;52.21
54465;BME280;40374;49.480;20.016;2023-04-29T10:06:06;94693.94;;;17.63;54.68
54465;BME280;40374;49.480;20.016;2023-04-29T10:08:34;94679.94;;;17.73;54.42
54465;BME280;40374;49.480;20.016;2023-04-29T10:11:03;94683.69;;;17.90;54.12
54465;BME280;40374;49.480;20.016;2023-04-29T10:13:34;94677.91;;;17.91;55.50
54465;BME280;40374;49.480;20.016;2023-04-29T10:16:10;94677.44;;;17.89;54.79
54465;BME280;40374;49.480;20.016;2023-04-29T10:18:41;94675.41;;;17.77;54.74
54465;BME280;40374;49.480;20.016;2023-04-29T10:21:12;94683.25;;;17.37;55.58
54465;BME280;40374;49.480;20.016;2023-04-29T10:23:41;94670.41;;;17.16;55.54
54465;BME280;40374;49.480;20.016;2023-04-29T10:26:13;94672.69;;;17.06;55.96
54465;BME280;40374;49.480;20.016;2023-04-29T10:28:42;94668.34;;;17.34;59.02
54465;BME280;40374;49.480;20.016;2023-04-29T10:31:13;94664.34;;;17.82;59.21
54465;BME280;40374;49.480;20.016;2023-04-29T10:33:44;94664.53;;;17.77;55.30
54465;BME280;40374;49.480;20.016;2023-04-29T10:36:14;94664.03;;;17.84;56.46
54465;BME280;40374;49.480;20.016;2023-04-29T10:38:47;94652.59;;;17.70;53.95
54465;BME280;40374;49.480;20.016;2023-04-29T10:41:22;94659.50;;;17.46;54.88
54465;BME280;40374;49.480;20.016;2023-04-29T10:43:52;94650.75;;;17.82;58.18
54465;BME280;40374;49.480;20.016;2023-04-29T10:48:49;94656.81;;;18.21;54.62
54465;BME280;40374;49.480;20.016;2023-04-29T10:51:34;94648.41;;;17.72;53.59
54465;BME280;40374;49.480;20.016;2023-04-29T10:54:14;94647.84;;;17.88;53.19
54465;BME280;40374;49.480;20.016;2023-04-29T10:56:46;94643.56;;;17.99;53.12
54465;BME280;40374;49.480;20.016;2023-04-29T10:59:19;94647.34;;;18.40;53.98
54465;BME280;40374;49.480;20.016;2023-04-29T11:01:53;94647.03;;;18.08;52.05
54465;BME280;40374;49.480;20.016;2023-04-29T11:04:21;94646.13;;;17.11;53.71
54465;BME280;40374;49.480;20.016;2023-04-29T11:06:53;94650.63;;;16.69;54.85
54465;BME280;40374;49.480;20.016;2023-04-29T11:09:27;94648.09;;;16.63;55.80
54465;BME280;40374;49.480;20.016;2023-04-29T11:14:42;94638.66;;;16.70;55.08
54465;BME280;40374;49.480;20.016;2023-04-29T11:17:13;94642.00;;;16.67;55.71
54465;BME280;40374;49.480;20.016;2023-04-29T11:19:46;94642.03;;;16.11;55.97
54465;BME280;40374;49.480;20.016;2023-04-29T11:24:55;94629.97;;;15.73;58.90
54465;BME280;40374;49.480;20.016;2023-04-29T11:27:45;94637.13;;;15.60;60.67
54465;BME280;40374;49.480;20.016;2023-04-29T11:30:17;94637.44;;;15.41;60.15
54465;BME280;40374;49.480;20.016;2023-04-29T11:32:46;94641.25;;;15.40;61.81
54465;BME280;40374;49.480;20.016;2023-04-29T11:35:22;94653.66;;;15.24;61.91
54465;BME280;40374;49.480;20.016;2023-04-29T11:37:49;94647.31;;;15.46;67.24
54465;BME280;40374;49.480;20.016;2023-04-29T11:40:17;94639.66;;;15.57;68.19
54465;BME280;40374;49.480;20.016;2023-04-29T11:42:48;94645.56;;;15.94;64.87
54465;BME280;40374;49.480;20.016;2023-04-29T11:45:23;94642.97;;;16.06;66.50
54465;BME280;40374;49.480;20.016;2023-04-29T11:47:51;94648.25;;;16.11;65.95
54465;BME280;40374;49.480;20.016;2023-04-29T11:50:21;94644.59;;;16.07;63.44
54465;BME280;40374;49.480;20.016;2023-04-29T11:52:51;94645.41;;;15.90;64.13
54465;BME280;40374;49.480;20.016;2023-04-29T11:55:19;94647.16;;;15.86;65.15
54465;BME280;40374;49.480;20.016;2023-04-29T11:57:51;94654.66;;;15.54;63.07
54465;BME280;40374;49.480;20.016;2023-04-29T12:00:20;94645.50;;;15.07;65.06
54465;BME280;40374;49.480;20.016;2023-04-29T12:02:47;94652.19;;;15.00;68.71
54465;BME280;40374;49.480;20.016;2023-04-29T12:05:16;94645.13;;;14.82;70.57
54465;BME280;40374;49.480;20.016;2023-04-29T12:07:48;94654.22;;;14.86;74.96
54465;BME280;40374;49.480;20.016;2023-04-29T12:10:17;94655.34;;;14.94;72.19
54465;BME280;40374;49.480;20.016;2023-04-29T12:12:47;94654.56;;;14.53;67.87
54465;BME280;40374;49.480;20.016;2023-04-29T12:15:20;94659.72;;;14.32;71.11
54465;BME280;40374;49.480;20.016;2023-04-29T12:17:50;94656.34;;;14.27;79.12
54465;BME280;40374;49.480;20.016;2023-04-29T12:20:19;94659.69;;;14.01;76.24
54465;BME280;40374;49.480;20.016;2023-04-29T12:22:47;94660.81;;;13.77;75.43
54465;BME280;40374;49.480;20.016;2023-04-29T12:25:16;94671.88;;;13.67;78.67
54465;BME280;40374;49.480;20.016;2023-04-29T12:27:47;94665.69;;;13.53;81.22
54465;BME280;40374;49.480;20.016;2023-04-29T12:30:15;94657.91;;;13.51;84.84
54465;BME280;40374;49.480;20.016;2023-04-29T12:32:44;94668.69;;;13.51;83.50
54465;BME280;40374;49.480;20.016;2023-04-29T12:35:16;94665.97;;;13.65;98.23
54465;BME280;40374;49.480;20.016;2023-04-29T12:37:48;94660.06;;;13.86;89.88
54465;BME280;40374;49.480;20.016;2023-04-29T12:40:16;94659.56;;;14.06;91.30
54465;BME280;40374;49.480;20.016;2023-04-29T12:42:47;94657.81;;;14.33;94.41
54465;BME280;40374;49.480;20.016;2023-04-29T12:45:28;94647.75;;;14.56;86.99
54465;BME280;40374;49.480;20.016;2023-04-29T12:47:59;94645.25;;;14.68;92.36
54465;BME280;40374;49.480;20.016;2023-04-29T12:50:32;94637.66;;;14.88;93.87
54465;BME280;40374;49.480;20.016;2023-04-29T12:53:01;94635.16;;;15.26;92.39
54465;BME280;40374;49.480;20.016;2023-04-29T12:55:28;94640.13;;;15.59;83.06
54465;BME280;40374;49.480;20.016;2023-04-29T12:57:56;94636.16;;;15.82;84.15
54465;BME280;40374;49.480;20.016;2023-04-29T13:00:26;94623.03;;;16.11;83.56
54465;BME280;40374;49.480;20.016;2023-04-29T13:02:54;94628.56;;;16.32;68.90
54465;BME280;40374;49.480;20.016;2023-04-29T13:05:22;94633.31;;;15.88;64.19
54465;BME280;40374;49.480;20.016;2023-04-29T13:07:50;94632.16;;;15.71;66.41
54465;BME280;40374;49.480;20.016;2023-04-29T13:10:17;94625.63;;;15.63;68.94
54465;BME280;40374;49.480;20.016;2023-04-29T13:12:45;94623.72;;;15.55;68.79
54465;BME280;40374;49.480;20.016;2023-04-29T13:15:13;94633.59;;;15.25;67.28
54465;BME280;40374;49.480;20.016;2023-04-29T13:17:42;94614.06;;;14.79;69.76
54465;BME280;40374;49.480;20.016;2023-04-29T13:20:09;94637.50;;;14.93;79.00
54465;BME280;40374;49.480;20.016;2023-04-29T13:22:38;94623.03;;;14.97;86.39
54465;BME280;40374;49.480;20.016;2023-04-29T13:25:06;94618.75;;;15.14;87.81
54465;BME280;40374;49.480;20.016;2023-04-29T13:27:33;94622.75;;;15.25;87.70
54465;BME280;40374;49.480;20.016;2023-04-29T13:30:01;94614.63;;;15.25;87.53